Time;durP1;ratioP1;P1;durP2;ratioP2;P2;SDS_P1;SDS_P2;PMS_P1;PMS_P2;Temp;Humidity;BMP_temperature;BMP_pressure;BME280_temperature;BME280_humidity;BME280_pressure;Samples;Min_cycle;Max_cycle;Signal;HPM_P1;HPM_P2
2023/03/01 00:01:04;;;;;;;14.63;9.83;;;-1.70;99.90;;;;;;5042768;28;20301;-71
2023/03/01 00:03:32;;;;;;;18.60;10.10;;;-1.70;99.90;;;;;;5043402;28;20209;-71
2023/03/01 00:06:00;;;;;;;17.17;10.27;;;-1.70;99.90;;;;;;5041358;28;20575;-72
2023/03/01 00:08:27;;;;;;;16.30;10.10;;;-1.70;99.90;;;;;;5036606;28;20255;-71
2023/03/01 00:11:24;;;;;;;16.63;10.43;;;-1.80;99.90;;;;;;5038601;28;20210;-71
2023/03/01 00:13:53;;;;;;;16.80;10.93;;;-1.80;99.90;;;;;;5017333;28;20240;-72
2023/03/01 00:16:23;;;;;;;17.00;10.63;;;-1.90;99.90;;;;;;5038303;28;20261;-71
2023/03/01 00:18:50;;;;;;;15.23;10.10;;;-1.90;99.90;;;;;;5022155;28;20213;-72
2023/03/01 00:21:17;;;;;;;17.30;10.50;;;-1.80;99.90;;;;;;5039018;28;20703;-71
2023/03/01 00:23:44;;;;;;;15.70;10.27;;;-1.90;99.90;;;;;;5038053;28;20214;-72
2023/03/01 00:26:13;;;;;;;17.43;10.87;;;-1.90;99.90;;;;;;5033160;28;20211;-71
2023/03/01 00:28:40;;;;;;;18.37;11.20;;;-1.90;99.90;;;;;;5044154;28;20712;-70
2023/03/01 00:31:13;;;;;;;17.13;11.00;;;-1.90;99.90;;;;;;5039600;28;20737;-70
2023/03/01 00:33:41;;;;;;;15.20;10.43;;;-1.90;99.90;;;;;;5036399;28;20201;-71
2023/03/01 00:36:10;;;;;;;15.73;10.20;;;-1.90;99.90;;;;;;5040233;28;20296;-70
2023/03/01 00:38:44;;;;;;;18.57;10.37;;;-2.00;99.90;;;;;;5041903;28;20293;-70
2023/03/01 00:41:14;;;;;;;15.60;10.47;;;-2.00;99.90;;;;;;5043066;28;20207;-71
2023/03/01 00:43:42;;;;;;;15.60;10.20;;;-2.00;99.90;;;;;;5039199;28;20279;-71
2023/03/01 00:46:14;;;;;;;16.00;10.37;;;-2.00;99.90;;;;;;5044523;28;20251;-71
2023/03/01 00:48:41;;;;;;;14.57;10.30;;;-2.00;99.90;;;;;;5044642;28;20201;-69
2023/03/01 00:51:14;;;;;;;16.77;10.13;;;-2.10;99.90;;;;;;5035897;28;20289;-70
2023/03/01 00:53:41;;;;;;;14.90;9.87;;;-2.10;99.90;;;;;;5027442;28;20846;-70
2023/03/01 00:56:10;;;;;;;15.83;9.97;;;-2.10;99.90;;;;;;5041054;28;20204;-71
2023/03/01 00:58:37;;;;;;;15.53;9.83;;;-2.10;99.90;;;;;;5040905;28;20265;-71
2023/03/01 01:01:18;;;;;;;14.60;9.90;;;-2.10;99.90;;;;;;5043867;28;20205;-70
2023/03/01 01:03:58;;;;;;;18.43;9.93;;;-2.10;99.90;;;;;;5047405;28;20299;-71
2023/03/01 01:06:29;;;;;;;16.43;9.50;;;-2.10;99.90;;;;;;5036649;28;20256;-70
2023/03/01 01:08:56;;;;;;;16.90;9.97;;;-2.20;99.90;;;;;;5021341;28;20289;-71
2023/03/01 01:11:26;;;;;;;16.60;10.33;;;-2.20;99.90;;;;;;5023219;28;20669;-72
2023/03/01 01:13:53;;;;;;;13.67;9.30;;;-2.20;99.90;;;;;;5038494;28;20245;-70
2023/03/01 01:16:22;;;;;;;15.10;10.20;;;-2.20;99.90;;;;;;5041219;28;20228;-70
2023/03/01 01:18:50;;;;;;;16.17;9.80;;;-2.20;99.90;;;;;;5038013;28;20253;-70
2023/03/01 01:21:20;;;;;;;15.40;9.20;;;-2.30;99.90;;;;;;5041318;28;20380;-70
2023/03/01 01:23:47;;;;;;;17.33;9.47;;;-2.30;99.90;;;;;;5040256;28;20264;-71
2023/03/01 01:26:26;;;;;;;15.60;9.37;;;-2.30;99.90;;;;;;5039486;28;20205;-70
2023/03/01 01:28:53;;;;;;;13.43;9.67;;;-2.30;99.90;;;;;;5038571;28;20225;-72
2023/03/01 01:31:23;;;;;;;18.30;9.50;;;-2.30;99.90;;;;;;5041790;28;20215;-70
2023/03/01 01:33:51;;;;;;;15.23;9.50;;;-2.30;99.90;;;;;;5039843;28;20551;-70
2023/03/01 01:36:18;;;;;;;14.20;9.23;;;-2.30;99.90;;;;;;5039536;28;20209;-69
2023/03/01 01:38:45;;;;;;;12.60;8.83;;;-2.40;99.90;;;;;;5042041;28;20407;-71
2023/03/01 01:41:12;;;;;;;17.53;9.23;;;-2.40;99.90;;;;;;5039933;28;20241;-71
2023/03/01 01:43:42;;;;;;;16.30;9.17;;;-2.40;99.90;;;;;;5041008;28;20301;-69
2023/03/01 01:46:28;;;;;;;16.27;9.83;;;-2.50;99.90;;;;;;5044523;28;20194;-71
2023/03/01 01:49:03;;;;;;;16.27;9.87;;;-2.50;99.90;;;;;;5037514;28;20290;-71
2023/03/01 01:51:38;;;;;;;16.57;9.97;;;-2.50;99.90;;;;;;5037674;28;20210;-69
2023/03/01 01:54:31;;;;;;;13.80;9.47;;;-2.50;99.90;;;;;;5038934;28;20292;-70
2023/03/01 01:57:03;;;;;;;14.10;8.97;;;-2.60;99.90;;;;;;5043800;28;20325;-72
2023/03/01 01:59:32;;;;;;;13.77;9.10;;;-2.60;99.90;;;;;;5044900;28;20305;-70
2023/03/01 02:02:03;;;;;;;15.27;9.97;;;-2.60;99.90;;;;;;5045286;28;20233;-71
2023/03/01 02:04:32;;;;;;;17.80;9.83;;;-2.60;99.90;;;;;;5024115;28;20237;-70
2023/03/01 02:07:14;;;;;;;19.73;9.77;;;-2.60;99.90;;;;;;5038701;28;20241;-70
2023/03/01 02:09:45;;;;;;;16.50;10.30;;;-2.60;99.90;;;;;;5040429;28;20198;-71
2023/03/01 02:12:14;;;;;;;16.03;9.73;;;-2.60;99.90;;;;;;5032288;28;20269;-70
2023/03/01 02:14:40;;;;;;;17.20;9.67;;;-2.60;99.90;;;;;;5041240;28;20233;-71
2023/03/01 02:17:07;;;;;;;14.50;9.03;;;-2.60;99.90;;;;;;5043691;28;20320;-70
2023/03/01 02:20:27;;;;;;;14.77;9.50;;;-2.60;99.90;;;;;;5044838;28;20230;-70
2023/03/01 02:22:54;;;;;;;13.40;9.23;;;-2.70;99.90;;;;;;5038822;28;20295;-72
2023/03/01 02:25:39;;;;;;;16.27;9.07;;;-2.70;99.90;;;;;;5043556;28;20245;-71
2023/03/01 02:28:15;;;;;;;14.73;8.60;;;-2.70;99.90;;;;;;5039226;28;20315;-70
2023/03/01 02:33:36;;;;;;;16.73;9.37;;;-2.70;99.90;;;;;;5044804;28;20213;-69
2023/03/01 02:36:15;;;;;;;11.70;8.33;;;-2.80;99.90;;;;;;5041533;28;20681;-71
2023/03/01 02:38:42;;;;;;;12.87;8.57;;;-2.80;99.90;;;;;;5043227;28;20233;-70
2023/03/01 02:41:12;;;;;;;14.63;9.33;;;-2.90;99.90;;;;;;5031769;28;20658;-71
2023/03/01 02:43:39;;;;;;;11.70;8.47;;;-2.80;99.90;;;;;;5043471;28;20257;-70
2023/03/01 02:46:16;;;;;;;14.03;9.07;;;-2.90;99.90;;;;;;5040982;28;20627;-71
2023/03/01 02:48:45;;;;;;;14.40;8.67;;;-2.90;99.90;;;;;;5041328;28;20211;-71
2023/03/01 02:51:57;;;;;;;11.77;8.37;;;-2.90;99.90;;;;;;5040041;28;20866;-70
2023/03/01 02:54:26;;;;;;;11.47;8.40;;;-2.90;99.90;;;;;;5041396;28;20206;-71
2023/03/01 02:56:53;;;;;;;15.23;8.70;;;-2.90;99.90;;;;;;5040371;28;20785;-71
2023/03/01 02:59:22;;;;;;;15.47;9.57;;;-3.00;99.90;;;;;;5042608;28;20201;-70
2023/03/01 03:01:49;;;;;;;14.87;9.23;;;-3.00;99.90;;;;;;5040193;28;20589;-71
2023/03/01 03:04:20;;;;;;;14.80;9.03;;;-3.00;99.90;;;;;;5043050;28;20348;-69
2023/03/01 03:06:49;;;;;;;14.77;9.57;;;-3.10;99.90;;;;;;5043262;28;20209;-70
2023/03/01 03:09:17;;;;;;;15.73;9.17;;;-3.00;99.90;;;;;;5044352;28;20210;-71
2023/03/01 03:11:44;;;;;;;15.90;9.57;;;-3.10;99.90;;;;;;5025709;28;20609;-71
2023/03/01 03:14:13;;;;;;;16.73;9.60;;;-3.10;99.90;;;;;;5042417;28;20210;-70
2023/03/01 03:16:45;;;;;;;15.87;10.10;;;-3.10;99.90;;;;;;5031213;28;20233;-71
2023/03/01 03:19:12;;;;;;;16.77;8.70;;;-3.10;99.90;;;;;;5031519;28;20212;-70
2023/03/01 03:21:39;;;;;;;17.20;9.90;;;-3.10;99.90;;;;;;5043244;28;20206;-70
2023/03/01 03:24:06;;;;;;;15.97;9.67;;;-3.10;99.90;;;;;;5045104;28;20197;-69
2023/03/01 03:26:32;;;;;;;13.33;9.43;;;-3.20;99.90;;;;;;5045791;28;20292;-70
2023/03/01 03:28:59;;;;;;;18.60;10.67;;;-3.20;99.90;;;;;;5040443;28;20292;-71
2023/03/01 03:31:26;;;;;;;15.43;9.90;;;-3.20;99.90;;;;;;5039908;28;20271;-69
2023/03/01 03:33:53;;;;;;;16.07;9.90;;;-3.20;99.90;;;;;;5038974;28;20213;-70
2023/03/01 03:36:23;;;;;;;16.33;8.90;;;-3.20;99.90;;;;;;5041666;28;20239;-71
2023/03/01 03:38:50;;;;;;;15.80;9.17;;;-3.20;99.90;;;;;;5041889;28;20232;-71
2023/03/01 03:41:17;;;;;;;21.57;10.10;;;-3.20;99.90;;;;;;5038505;28;20205;-70
2023/03/01 03:43:44;;;;;;;19.27;11.33;;;-3.20;99.90;;;;;;5039059;28;20225;-70
2023/03/01 03:46:11;;;;;;;18.17;10.30;;;-3.20;99.90;;;;;;5044573;28;20248;-70
2023/03/01 03:48:43;;;;;;;16.17;9.60;;;-3.20;99.90;;;;;;5040476;28;20232;-69
2023/03/01 03:51:15;;;;;;;17.20;9.90;;;-3.20;99.90;;;;;;5039114;28;20229;-71
2023/03/01 03:53:43;;;;;;;16.30;10.40;;;-3.30;99.90;;;;;;5041763;28;20209;-70
2023/03/01 03:56:11;;;;;;;17.20;9.37;;;-3.30;99.90;;;;;;5043334;28;20301;-70
2023/03/01 03:58:38;;;;;;;14.10;9.33;;;-3.30;99.90;;;;;;5039139;28;20241;-71
2023/03/01 04:01:05;;;;;;;14.53;10.10;;;-3.30;99.90;;;;;;5045925;28;20210;-71
2023/03/01 04:03:34;;;;;;;17.60;10.37;;;-3.30;99.90;;;;;;5040298;28;20590;-70
2023/03/01 04:06:02;;;;;;;16.13;9.10;;;-3.30;99.90;;;;;;5020728;28;20228;-71
2023/03/01 04:08:30;;;;;;;15.17;9.57;;;-3.30;99.90;;;;;;5038229;28;20371;-70
2023/03/01 04:13:47;;;;;;;13.23;9.23;;;-3.40;99.90;;;;;;5039774;28;20225;-72
2023/03/01 04:16:14;;;;;;;17.63;9.93;;;-3.40;99.90;;;;;;5043868;28;20571;-70
2023/03/01 04:18:41;;;;;;;17.30;9.90;;;-3.40;99.90;;;;;;5038547;28;20511;-70
2023/03/01 04:21:07;;;;;;;18.13;10.67;;;-3.50;99.90;;;;;;5040706;28;20229;-71
2023/03/01 04:23:34;;;;;;;17.23;10.10;;;-3.40;99.90;;;;;;5042173;28;20675;-71
2023/03/01 04:26:01;;;;;;;17.80;10.17;;;-3.50;99.90;;;;;;5043619;28;20630;-70
2023/03/01 04:28:34;;;;;;;17.57;9.30;;;-3.50;99.90;;;;;;5041230;28;20232;-70
2023/03/01 04:31:15;;;;;;;23.33;11.33;;;-3.50;99.90;;;;;;5041494;28;20262;-71
2023/03/01 04:33:44;;;;;;;18.73;10.83;;;-3.50;99.90;;;;;;5041855;28;20620;-69
2023/03/01 04:36:13;;;;;;;20.33;11.53;;;-3.50;99.90;;;;;;5042985;28;20203;-71
2023/03/01 04:38:40;;;;;;;19.13;10.60;;;-3.50;99.90;;;;;;5042471;28;20211;-70
2023/03/01 04:41:09;;;;;;;19.73;10.90;;;-3.50;99.90;;;;;;5037616;28;20294;-71
2023/03/01 04:43:46;;;;;;;18.33;10.77;;;-3.50;99.90;;;;;;5040740;28;20232;-72
2023/03/01 04:46:18;;;;;;;17.47;11.43;;;-3.50;99.90;;;;;;5026333;28;20225;-71
2023/03/01 04:48:47;;;;;;;19.57;11.47;;;-3.50;99.90;;;;;;5038788;28;20724;-72
2023/03/01 04:51:14;;;;;;;23.27;12.57;;;-3.50;99.90;;;;;;5024210;28;20220;-71
2023/03/01 04:53:42;;;;;;;26.17;13.47;;;-3.50;99.90;;;;;;5040401;28;20673;-72
2023/03/01 04:56:09;;;;;;;24.17;11.70;;;-3.50;99.90;;;;;;5041513;28;20239;-72
2023/03/01 04:58:36;;;;;;;23.70;12.30;;;-3.50;99.90;;;;;;5040915;28;20240;-71
2023/03/01 05:01:14;;;;;;;20.63;12.07;;;-3.50;99.90;;;;;;5042948;28;20214;-73
2023/03/01 05:03:49;;;;;;;23.33;12.17;;;-3.50;99.90;;;;;;5022555;28;20263;-72
2023/03/01 05:06:20;;;;;;;20.53;11.70;;;-3.50;99.90;;;;;;5037872;28;20676;-70
2023/03/01 05:08:47;;;;;;;24.90;12.13;;;-3.50;99.90;;;;;;5041417;28;20222;-70
2023/03/01 05:11:14;;;;;;;18.90;11.33;;;-3.50;99.90;;;;;;5039752;28;20208;-70
2023/03/01 05:13:41;;;;;;;20.80;12.03;;;-3.50;99.90;;;;;;5039750;28;20225;-69
2023/03/01 05:16:10;;;;;;;21.27;11.60;;;-3.60;99.90;;;;;;5040929;28;20284;-72
2023/03/01 05:18:39;;;;;;;18.77;12.00;;;-3.60;99.90;;;;;;5033310;28;20321;-70
2023/03/01 05:21:11;;;;;;;23.03;11.73;;;-3.60;99.90;;;;;;5037585;28;20310;-70
2023/03/01 05:23:39;;;;;;;25.03;12.80;;;-3.60;99.90;;;;;;5037418;28;20244;-71
2023/03/01 05:26:06;;;;;;;23.90;12.43;;;-3.70;99.90;;;;;;5040616;28;20200;-70
2023/03/01 05:28:51;;;;;;;22.43;12.27;;;-3.70;99.90;;;;;;5037667;28;20232;-70
2023/03/01 05:31:18;;;;;;;18.47;12.00;;;-3.70;99.90;;;;;;5023827;28;20286;-72
2023/03/01 05:33:45;;;;;;;21.50;12.23;;;-3.70;99.90;;;;;;5040990;28;20434;-69
2023/03/01 05:36:12;;;;;;;20.27;11.73;;;-3.70;99.90;;;;;;5041234;28;20267;-72
2023/03/01 05:38:38;;;;;;;24.90;13.10;;;-3.70;99.90;;;;;;5047064;28;20274;-70
2023/03/01 05:41:13;;;;;;;25.80;13.27;;;-3.80;99.90;;;;;;5043824;28;20553;-71
2023/03/01 05:43:44;;;;;;;31.60;14.37;;;-3.80;99.90;;;;;;5040474;28;20302;-70
2023/03/01 05:46:13;;;;;;;29.07;14.50;;;-3.80;99.90;;;;;;5047856;28;20302;-70
2023/03/01 05:48:40;;;;;;;28.23;13.90;;;-3.80;99.90;;;;;;5043993;28;20635;-69
2023/03/01 05:51:07;;;;;;;23.67;13.53;;;-3.80;99.90;;;;;;5048614;28;20240;-71
2023/03/01 05:53:33;;;;;;;24.93;13.50;;;-3.80;99.90;;;;;;5042224;28;20715;-71
2023/03/01 05:56:03;;;;;;;28.97;14.00;;;-3.80;99.90;;;;;;5042652;28;20209;-70
2023/03/01 05:58:30;;;;;;;26.73;14.43;;;-3.80;99.90;;;;;;5046740;28;20259;-71
2023/03/01 06:00:57;;;;;;;27.67;13.93;;;-3.80;99.90;;;;;;5055080;28;20291;-70
2023/03/01 06:03:24;;;;;;;23.30;12.97;;;-3.80;99.90;;;;;;5046881;28;20221;-69
2023/03/01 06:05:57;;;;;;;28.77;14.53;;;-3.80;99.90;;;;;;5043986;28;20644;-70
2023/03/01 06:08:26;;;;;;;30.90;15.37;;;-3.80;99.90;;;;;;5040229;28;20330;-69
2023/03/01 06:10:53;;;;;;;28.80;15.20;;;-3.80;99.90;;;;;;5039562;28;20648;-70
2023/03/01 06:13:20;;;;;;;36.03;15.50;;;-3.80;99.90;;;;;;5037754;28;20347;-71
2023/03/01 06:15:46;;;;;;;27.13;15.63;;;-3.80;99.90;;;;;;5044300;28;20202;-71
2023/03/01 06:18:13;;;;;;;28.93;15.53;;;-3.80;99.90;;;;;;5033362;28;20683;-70
2023/03/01 06:20:40;;;;;;;30.73;14.70;;;-3.80;99.90;;;;;;5041718;28;20707;-70
2023/03/01 06:23:07;;;;;;;27.60;14.97;;;-3.80;99.90;;;;;;5038507;28;20251;-69
2023/03/01 06:25:35;;;;;;;25.30;14.73;;;-3.80;99.90;;;;;;5040478;28;20680;-69
2023/03/01 06:28:02;;;;;;;29.60;15.10;;;-3.80;99.90;;;;;;5047764;28;20298;-71
2023/03/01 06:30:28;;;;;;;32.57;15.87;;;-3.80;99.90;;;;;;5047412;28;20207;-71
2023/03/01 06:33:00;;;;;;;27.73;15.47;;;-3.90;99.90;;;;;;5045172;28;20220;-70
2023/03/01 06:35:29;;;;;;;32.80;15.20;;;-3.80;99.90;;;;;;5028350;28;20367;-70
2023/03/01 06:37:58;;;;;;;29.27;14.63;;;-3.80;99.90;;;;;;5041267;28;20251;-71
2023/03/01 06:40:25;;;;;;;29.00;15.10;;;-3.80;99.90;;;;;;5029514;28;20313;-71
2023/03/01 06:42:52;;;;;;;35.00;16.27;;;-3.80;99.90;;;;;;5042097;28;20217;-71
2023/03/01 06:45:20;;;;;;;29.40;14.80;;;-3.80;99.90;;;;;;5040074;28;20233;-70
2023/03/01 06:47:47;;;;;;;33.60;16.03;;;-3.70;99.90;;;;;;5042470;28;20299;-70
2023/03/01 06:50:15;;;;;;;37.27;16.67;;;-3.70;99.90;;;;;;5024686;28;20235;-69
2023/03/01 06:52:43;;;;;;;34.63;15.73;;;-3.70;99.90;;;;;;5044302;28;20207;-71
2023/03/01 06:55:11;;;;;;;33.40;16.47;;;-3.70;99.90;;;;;;5042567;28;20285;-71
2023/03/01 06:57:38;;;;;;;34.93;17.43;;;-3.60;99.90;;;;;;5023612;28;20222;-71
2023/03/01 07:00:05;;;;;;;36.30;18.50;;;-3.60;99.90;;;;;;5042330;28;20208;-70
2023/03/01 07:02:32;;;;;;;42.43;18.10;;;-3.60;99.90;;;;;;5042820;28;20232;-70
2023/03/01 07:04:59;;;;;;;35.80;18.30;;;-3.60;99.90;;;;;;5021159;28;20237;-72
2023/03/01 07:07:26;;;;;;;43.30;21.03;;;-3.50;99.90;;;;;;5040826;28;20270;-70
2023/03/01 07:09:53;;;;;;;44.97;21.90;;;-3.40;99.90;;;;;;5041036;28;20194;-70
2023/03/01 07:12:19;;;;;;;48.73;23.17;;;-3.30;99.90;;;;;;5024255;28;20255;-70
2023/03/01 07:14:46;;;;;;;64.53;27.53;;;-3.00;99.90;;;;;;5043565;28;20224;-72
2023/03/01 07:17:13;;;;;;;65.07;25.90;;;-2.40;99.90;;;;;;5043728;28;20208;-70
2023/03/01 07:19:40;;;;;;;51.77;24.17;;;-1.70;99.90;;;;;;5023372;28;20256;-69
2023/03/01 07:22:07;;;;;;;45.10;21.47;;;-1.10;99.90;;;;;;5040368;28;20301;-69
2023/03/01 07:24:34;;;;;;;32.67;18.43;;;-0.80;99.90;;;;;;5033864;28;20214;-70
2023/03/01 07:27:01;;;;;;;26.83;15.63;;;-0.50;99.90;;;;;;5042528;28;20221;-69
2023/03/01 07:29:28;;;;;;;27.27;14.70;;;-0.30;99.90;;;;;;5023699;28;20208;-69
2023/03/01 07:31:55;;;;;;;25.43;14.97;;;-0.10;99.90;;;;;;5044209;28;20206;-70
2023/03/01 07:34:22;;;;;;;29.43;16.90;;;0.00;99.90;;;;;;5040898;28;20658;-71
2023/03/01 07:36:48;;;;;;;27.97;16.47;;;0.10;99.90;;;;;;5045208;28;20742;-70
2023/03/01 07:39:15;;;;;;;28.93;16.10;;;0.20;99.90;;;;;;5042930;28;20227;-70
2023/03/01 07:41:45;;;;;;;31.37;15.80;;;0.30;99.90;;;;;;5040429;28;20279;-71
2023/03/01 07:44:12;;;;;;;31.00;16.10;;;0.40;99.90;;;;;;5038885;28;20207;-70
2023/03/01 07:46:39;;;;;;;31.07;16.20;;;0.40;99.90;;;;;;5038161;28;20243;-71
2023/03/01 07:49:05;;;;;;;29.17;17.43;;;0.30;99.90;;;;;;5040937;28;20288;-70
2023/03/01 07:51:34;;;;;;;30.67;17.93;;;0.20;99.90;;;;;;5038611;28;20289;-69
2023/03/01 07:54:01;;;;;;;31.80;17.43;;;0.10;99.90;;;;;;5021133;28;20209;-71
2023/03/01 07:56:28;;;;;;;37.40;20.53;;;0.00;99.90;;;;;;5042292;28;20616;-70
2023/03/01 07:58:55;;;;;;;33.83;18.77;;;-0.10;99.90;;;;;;5040781;28;20303;-69
2023/03/01 08:01:23;;;;;;;30.03;17.50;;;-0.10;99.90;;;;;;5035939;28;20540;-69
2023/03/01 08:03:50;;;;;;;30.97;18.57;;;-0.10;99.90;;;;;;5042287;28;20564;-71
2023/03/01 08:06:17;;;;;;;35.00;18.87;;;-0.20;99.90;;;;;;5034784;28;20220;-69
2023/03/01 08:08:44;;;;;;;28.67;17.93;;;-0.20;99.90;;;;;;5027733;28;20617;-69
2023/03/01 08:11:13;;;;;;;37.00;19.07;;;-0.20;99.90;;;;;;5041347;28;20202;-69
2023/03/01 08:13:41;;;;;;;39.27;19.57;;;-0.20;99.90;;;;;;5023210;28;20217;-70
2023/03/01 08:16:11;;;;;;;36.63;19.73;;;-0.20;99.90;;;;;;5038584;28;20548;-70
2023/03/01 08:18:38;;;;;;;32.77;18.40;;;-0.20;99.90;;;;;;5038448;28;20259;-70
2023/03/01 08:21:17;;;;;;;34.30;20.30;;;-0.30;99.90;;;;;;5047294;28;20261;-71
2023/03/01 08:23:44;;;;;;;38.87;18.90;;;-0.30;99.90;;;;;;5040209;28;20303;-70
2023/03/01 08:26:19;;;;;;;32.87;18.77;;;-0.30;99.90;;;;;;5023402;28;20214;-71
2023/03/01 08:28:48;;;;;;;37.60;20.33;;;-0.30;99.90;;;;;;5039682;28;20686;-70
2023/03/01 08:31:18;;;;;;;35.20;18.93;;;-0.30;99.90;;;;;;5045708;28;20248;-70
2023/03/01 08:33:51;;;;;;;36.43;19.87;;;-0.30;99.90;;;;;;5040223;28;20292;-71
2023/03/01 08:36:19;;;;;;;38.97;19.17;;;-0.30;99.90;;;;;;5041474;28;20628;-69
2023/03/01 08:38:46;;;;;;;35.53;20.10;;;-0.20;99.90;;;;;;5039450;28;20243;-71
2023/03/01 08:41:13;;;;;;;36.53;19.93;;;-0.30;99.90;;;;;;5043922;28;20556;-69
2023/03/01 08:43:40;;;;;;;33.37;19.50;;;-0.20;99.90;;;;;;5041567;28;20301;-69
2023/03/01 08:46:07;;;;;;;32.20;18.40;;;-0.20;99.90;;;;;;5024973;28;20651;-70
2023/03/01 08:48:33;;;;;;;31.03;19.30;;;-0.20;99.90;;;;;;5040558;28;20289;-70
2023/03/01 08:51:18;;;;;;;35.43;19.33;;;-0.20;99.90;;;;;;5039834;28;20286;-69
2023/03/01 08:53:46;;;;;;;33.07;19.27;;;-0.10;99.90;;;;;;5037870;28;20199;-72
2023/03/01 08:56:13;;;;;;;34.83;19.37;;;-0.10;99.90;;;;;;5023252;28;20243;-70
2023/03/01 08:58:43;;;;;;;35.83;20.23;;;0.00;99.90;;;;;;5042490;28;20212;-70
2023/03/01 09:01:11;;;;;;;35.33;20.47;;;0.00;99.90;;;;;;5025094;28;20696;-70
2023/03/01 09:03:38;;;;;;;32.83;19.97;;;0.10;99.90;;;;;;5026271;28;20236;-71
2023/03/01 09:06:07;;;;;;;32.23;18.07;;;0.10;99.90;;;;;;5035353;28;20727;-69
2023/03/01 09:08:42;;;;;;;36.70;19.10;;;0.20;99.90;;;;;;5045867;28;20216;-74
2023/03/01 09:11:11;;;;;;;31.73;19.40;;;0.30;99.90;;;;;;5040949;28;20216;-70
2023/03/01 09:13:38;;;;;;;33.13;19.40;;;0.40;99.90;;;;;;5026620;28;20786;-71
2023/03/01 09:16:08;;;;;;;29.13;17.67;;;0.50;99.90;;;;;;5045109;28;20689;-71
2023/03/01 09:18:35;;;;;;;31.00;17.83;;;0.50;99.90;;;;;;5042501;28;20266;-71
2023/03/01 09:21:10;;;;;;;33.30;18.17;;;0.60;99.90;;;;;;5042195;28;20316;-70
2023/03/01 09:23:45;;;;;;;28.60;16.67;;;0.70;99.90;;;;;;5047091;28;20215;-70
2023/03/01 09:26:19;;;;;;;39.47;18.63;;;0.70;99.90;;;;;;5043102;28;20208;-70
2023/03/01 09:28:46;;;;;;;29.77;16.40;;;0.80;99.90;;;;;;5046427;28;20307;-71
2023/03/01 09:31:14;;;;;;;27.57;16.30;;;0.80;99.90;;;;;;5046216;28;20618;-70
2023/03/01 09:33:44;;;;;;;26.50;15.57;;;0.90;99.90;;;;;;5047023;28;20208;-71
2023/03/01 09:36:14;;;;;;;20.40;13.67;;;1.10;99.90;;;;;;5046694;28;20640;-70
2023/03/01 09:38:41;;;;;;;28.33;14.10;;;1.30;99.90;;;;;;5049483;28;20316;-69
2023/03/01 09:41:17;;;;;;;21.97;14.00;;;1.40;99.90;;;;;;5044923;28;20307;-69
2023/03/01 09:43:53;;;;;;;25.73;13.57;;;1.60;99.90;;;;;;5047278;28;20220;-70
2023/03/01 09:46:24;;;;;;;21.43;12.47;;;1.70;99.90;;;;;;5046054;28;20205;-70
2023/03/01 09:49:04;;;;;;;16.10;12.17;;;1.70;99.90;;;;;;5047946;28;20197;-71
2023/03/01 09:51:34;;;;;;;17.27;11.57;;;1.90;99.90;;;;;;5045649;28;20227;-70
2023/03/01 09:54:02;;;;;;;20.10;11.80;;;2.00;99.90;;;;;;5044535;28;20268;-71
2023/03/01 09:56:34;;;;;;;12.93;9.20;;;2.20;99.90;;;;;;5047694;28;20232;-71
2023/03/01 09:59:35;;;;;;;10.23;7.20;;;2.30;99.90;;;;;;5043953;28;20253;-71
2023/03/01 10:02:21;;;;;;;9.77;5.97;;;2.50;99.90;;;;;;5047628;28;20218;-70
2023/03/01 10:04:55;;;;;;;9.27;5.63;;;2.70;99.90;;;;;;5029014;28;20246;-70
2023/03/01 10:07:59;;;;;;;8.27;5.77;;;2.90;99.90;;;;;;5045128;28;20212;-71
2023/03/01 10:10:31;;;;;;;10.40;6.10;;;3.10;99.90;;;;;;5047317;28;20210;-71
2023/03/01 10:13:04;;;;;;;15.83;5.33;;;3.20;99.90;;;;;;5047509;28;20810;-72
2023/03/01 10:15:39;;;;;;;10.23;5.53;;;3.40;99.90;;;;;;5045374;28;20201;-70
2023/03/01 10:18:16;;;;;;;9.30;5.50;;;3.50;99.90;;;;;;5040759;28;20209;-70
2023/03/01 10:20:53;;;;;;;9.53;5.20;;;3.60;99.90;;;;;;5044468;28;20630;-70
2023/03/01 10:23:24;;;;;;;11.90;5.43;;;3.60;99.90;;;;;;5040555;28;20303;-70
2023/03/01 10:25:53;;;;;;;8.53;5.30;;;3.70;99.90;;;;;;5044115;28;20312;-71
2023/03/01 10:28:29;;;;;;;16.17;5.73;;;3.70;99.90;;;;;;5043350;28;20220;-71
2023/03/01 10:30:58;;;;;;;9.07;5.50;;;3.80;99.90;;;;;;5046769;28;20637;-71
2023/03/01 10:33:30;;;;;;;8.23;5.30;;;3.80;99.90;;;;;;5026812;28;20677;-71
2023/03/01 10:35:57;;;;;;;6.57;5.27;;;3.90;99.90;;;;;;5046704;28;20615;-72
2023/03/01 10:38:24;;;;;;;10.50;6.03;;;3.90;99.90;;;;;;5031426;28;20216;-71
2023/03/01 10:41:01;;;;;;;11.57;5.93;;;3.90;99.90;;;;;;5035756;28;20232;-71
2023/03/01 10:43:51;;;;;;;8.93;5.43;;;4.00;99.90;;;;;;5007717;28;20224;-70
2023/03/01 10:46:26;;;;;;;8.50;5.73;;;4.00;99.90;;;;;;5032083;28;20264;-71
2023/03/01 10:49:22;;;;;;;10.30;5.90;;;4.00;99.90;;;;;;5044897;28;20199;-72
2023/03/01 10:51:51;;;;;;;10.73;6.23;;;4.10;99.90;;;;;;5042351;28;20232;-71
2023/03/01 10:54:27;;;;;;;12.13;6.57;;;4.10;99.90;;;;;;5022129;28;20185;-71
2023/03/01 10:56:56;;;;;;;8.53;5.10;;;4.20;99.90;;;;;;5038992;28;20225;-71
2023/03/01 10:59:35;;;;;;;11.73;6.10;;;4.20;99.90;;;;;;5042419;28;20751;-71
2023/03/01 11:02:27;;;;;;;8.70;5.30;;;4.20;99.90;;;;;;5041565;28;20197;-71
2023/03/01 11:05:01;;;;;;;8.33;4.93;;;4.30;99.90;;;;;;5043338;28;20232;-71
2023/03/01 11:07:29;;;;;;;7.10;4.50;;;4.40;99.90;;;;;;5043260;28;20574;-70
2023/03/01 11:09:56;;;;;;;9.60;5.17;;;4.40;99.90;;;;;;5045550;28;20205;-72
2023/03/01 11:12:24;;;;;;;7.40;5.03;;;4.60;99.90;;;;;;5042845;28;20220;-71
2023/03/01 11:14:54;;;;;;;8.40;4.60;;;4.70;99.90;;;;;;5025698;28;20206;-71
2023/03/01 11:17:26;;;;;;;13.47;5.17;;;4.70;99.90;;;;;;5035460;28;20275;-70
2023/03/01 11:20:14;;;;;;;8.50;5.40;;;5.00;99.90;;;;;;5039024;28;20366;-70
2023/03/01 11:22:56;;;;;;;8.30;4.73;;;5.10;99.90;;;;;;5043749;28;20229;-70
2023/03/01 11:25:32;;;;;;;13.20;5.63;;;5.30;99.90;;;;;;5042318;28;20654;-70
2023/03/01 11:28:03;;;;;;;8.33;4.90;;;5.40;99.90;;;;;;5043120;28;20221;-70
2023/03/01 11:30:39;;;;;;;8.07;5.00;;;5.50;99.90;;;;;;5043784;28;20205;-71
2023/03/01 11:33:21;;;;;;;6.33;4.20;;;5.60;99.90;;;;;;5040734;28;20206;-70
2023/03/01 11:35:57;;;;;;;22.40;5.40;;;5.70;99.90;;;;;;5042891;28;20207;-69
2023/03/01 11:38:26;;;;;;;8.60;4.53;;;5.80;99.90;;;;;;5040325;28;20194;-69
2023/03/01 11:41:07;;;;;;;16.20;4.53;;;5.90;99.90;;;;;;5040182;28;20378;-70
2023/03/01 11:43:43;;;;;;;6.60;3.93;;;6.00;99.90;;;;;;5040450;28;20223;-69
2023/03/01 11:46:28;;;;;;;6.87;4.20;;;6.10;99.90;;;;;;5039269;28;20248;-69
2023/03/01 11:49:23;;;;;;;9.03;4.70;;;6.20;99.90;;;;;;5038955;28;20704;-69
2023/03/01 11:52:07;;;;;;;6.93;5.03;;;6.40;99.90;;;;;;5028205;28;20288;-69
2023/03/01 11:54:50;;;;;;;6.40;4.43;;;6.40;99.90;;;;;;5041388;28;20198;-69
2023/03/01 11:57:38;;;;;;;6.07;4.40;;;6.50;99.90;;;;;;5021807;28;20719;-68
2023/03/01 12:00:17;;;;;;;9.73;5.10;;;6.50;99.90;;;;;;5041125;28;20228;-68
2023/03/01 12:03:15;;;;;;;7.07;4.13;;;6.70;99.90;;;;;;5027017;28;20275;-70
2023/03/01 12:06:08;;;;;;;9.17;4.77;;;6.90;99.90;;;;;;5025302;28;20327;-69
2023/03/01 12:08:45;;;;;;;7.50;4.50;;;7.10;99.90;;;;;;5041716;28;20267;-70
2023/03/01 12:11:47;;;;;;;8.17;4.60;;;7.20;99.90;;;;;;5043552;28;20284;-70
2023/03/01 12:14:28;;;;;;;6.07;4.27;;;7.30;99.90;;;;;;5041502;28;20216;-70
2023/03/01 12:17:29;;;;;;;6.10;4.17;;;7.50;99.90;;;;;;5043476;28;20204;-71
2023/03/01 12:20:22;;;;;;;6.50;4.70;;;7.60;99.90;;;;;;5025720;28;20332;-68
2023/03/01 12:23:26;;;;;;;6.40;4.10;;;7.70;99.90;;;;;;5001194;28;20217;-69
2023/03/01 12:25:55;;;;;;;6.47;4.57;;;7.70;99.90;;;;;;5026730;28;20207;-69
2023/03/01 12:28:40;;;;;;;8.00;4.70;;;7.60;99.90;;;;;;5044097;28;20272;-70
2023/03/01 12:31:32;;;;;;;8.10;4.50;;;7.60;99.90;;;;;;5047148;28;20292;-71
2023/03/01 12:34:43;;;;;;;9.13;4.90;;;7.70;99.90;;;;;;5044050;28;20990;-69
2023/03/01 12:37:30;;;;;;;6.17;4.23;;;7.70;99.90;;;;;;5039043;28;20281;-70
2023/03/01 12:40:27;;;;;;;16.20;4.87;;;7.70;99.90;;;;;;5037782;28;20283;-69
2023/03/01 12:43:23;;;;;;;12.63;5.20;;;7.70;99.90;;;;;;5035656;28;20219;-70
2023/03/01 12:46:20;;;;;;;9.07;5.40;;;7.80;99.90;;;;;;5044300;28;20274;-70
2023/03/01 12:49:04;;;;;;;6.40;4.47;;;7.90;99.90;;;;;;5043784;28;20299;-70
2023/03/01 12:51:34;;;;;;;8.80;5.07;;;8.00;99.90;;;;;;5044471;28;20244;-70
2023/03/01 12:54:15;;;;;;;7.37;4.43;;;7.90;99.90;;;;;;5024475;28;20644;-69
2023/03/01 12:56:44;;;;;;;6.90;5.37;;;7.90;99.90;;;;;;5041905;28;20780;-68
2023/03/01 12:59:17;;;;;;;10.40;5.43;;;7.70;99.90;;;;;;5020711;28;20212;-71
2023/03/01 13:02:01;;;;;;;12.77;4.83;;;7.70;99.90;;;;;;5037504;28;20254;-69
2023/03/01 13:04:53;;;;;;;9.50;4.93;;;7.80;99.90;;;;;;5038234;28;20260;-69
2023/03/01 13:07:35;;;;;;;7.30;4.40;;;7.90;99.90;;;;;;5035743;28;20686;-70